createdAt,value
2018-06-13T00:04:14.931Z,15.07
2018-06-13T00:09:17.472Z,15.63
2018-06-13T00:14:20.794Z,14.83
2018-06-13T00:19:23.325Z,15.40
2018-06-13T00:24:26.683Z,13.47
2018-06-13T00:29:29.229Z,13.60
2018-06-13T00:34:31.776Z,14.53
2018-06-13T00:39:34.308Z,20.60
2018-06-13T00:44:36.854Z,18.30
2018-06-13T00:49:39.398Z,20.90
2018-06-13T00:54:41.949Z,15.93
2018-06-13T00:59:44.549Z,18.87
2018-06-13T01:04:47.869Z,14.87
2018-06-13T01:09:51.187Z,17.80
2018-06-13T01:14:53.737Z,20.13
2018-06-13T01:19:56.279Z,20.43
2018-06-13T01:24:59.649Z,20.50
2018-06-13T01:30:02.190Z,22.13
2018-06-13T01:35:05.519Z,19.50
2018-06-13T01:40:08.828Z,17.87
2018-06-13T01:45:12.147Z,40.60
2018-06-13T01:50:15.468Z,22.87
2018-06-13T01:55:18.773Z,17.30
2018-06-13T02:00:21.327Z,20.87
2018-06-13T02:05:23.892Z,18.23
2018-06-13T02:10:26.433Z,17.73
2018-06-13T02:15:28.972Z,17.87
2018-06-13T02:20:32.320Z,16.50
2018-06-13T02:25:34.881Z,16.60
2018-06-13T02:30:37.434Z,15.37
2018-06-13T02:35:40.764Z,11.10
2018-06-13T02:40:43.348Z,14.73
2018-06-13T02:45:45.897Z,14.23
2018-06-13T02:50:48.444Z,10.13
2018-06-13T02:55:50.982Z,8.57
2018-06-13T03:00:53.707Z,7.73
2018-06-13T03:05:56.254Z,8.17
2018-06-13T03:10:58.803Z,6.27
2018-06-13T03:16:01.360Z,9.23
2018-06-13T03:21:03.907Z,6.73
2018-06-13T03:26:06.460Z,7.33
2018-06-13T03:31:08.996Z,7.27
2018-06-13T03:36:11.541Z,6.97
2018-06-13T03:41:14.088Z,4.77
2018-06-13T03:46:16.633Z,8.37
2018-06-13T03:51:19.194Z,8.30
2018-06-13T03:56:21.750Z,10.77
2018-06-13T04:01:24.337Z,11.83
2018-06-13T04:06:26.881Z,7.93
2018-06-13T04:11:29.420Z,10.90
2018-06-13T04:16:31.945Z,9.70
2018-06-13T04:21:34.485Z,7.50
2018-06-13T04:26:37.027Z,6.87
2018-06-13T04:31:39.601Z,11.10
2018-06-13T04:36:42.145Z,5.50
2018-06-13T04:41:44.712Z,4.67
2018-06-13T04:46:47.269Z,8.43
2018-06-13T04:51:49.804Z,6.67
2018-06-13T04:56:52.362Z,7.20
2018-06-13T05:01:54.964Z,8.10
2018-06-13T05:06:57.533Z,3.80
2018-06-13T05:12:00.299Z,4.67
2018-06-13T05:17:02.831Z,7.77
2018-06-13T05:22:05.362Z,5.80
2018-06-13T05:27:07.911Z,6.47
2018-06-13T05:32:10.487Z,5.93
2018-06-13T05:37:13.037Z,4.87
2018-06-13T05:42:15.613Z,3.67
2018-06-13T05:47:18.145Z,5.30
2018-06-13T05:52:20.712Z,5.07
2018-06-13T05:57:23.273Z,3.80
2018-06-13T06:02:25.830Z,4.83
2018-06-13T06:07:28.369Z,7.20
2018-06-13T06:12:31.684Z,6.30
2018-06-13T06:17:34.228Z,4.57
2018-06-13T06:22:36.782Z,6.50
2018-06-13T06:27:39.625Z,4.40
2018-06-13T06:32:42.165Z,4.27
2018-06-13T06:37:44.715Z,4.70
2018-06-13T06:42:47.245Z,5.63
2018-06-13T06:47:49.800Z,8.67
2018-06-13T06:52:52.331Z,6.27
2018-06-13T06:57:54.896Z,9.17
2018-06-13T07:02:57.447Z,7.07
2018-06-13T07:08:00.010Z,4.77
2018-06-13T07:13:02.558Z,5.07
2018-06-13T07:18:05.124Z,5.67
2018-06-13T07:23:07.714Z,4.77
2018-06-13T07:28:10.262Z,3.00
2018-06-13T07:33:12.800Z,5.27
2018-06-13T07:38:15.334Z,6.40
2018-06-13T07:43:17.872Z,4.03
2018-06-13T07:48:20.417Z,6.10
2018-06-13T07:53:22.954Z,4.97
2018-06-13T07:58:25.484Z,8.50
2018-06-13T08:03:28.044Z,3.87
2018-06-13T08:08:30.777Z,4.73
2018-06-13T08:13:34.729Z,6.70
2018-06-13T08:18:37.330Z,3.73
2018-06-13T08:23:39.874Z,4.40
2018-06-13T08:28:42.427Z,9.20
2018-06-13T08:33:45.014Z,8.17
2018-06-13T08:38:47.527Z,4.87
2018-06-13T08:43:50.055Z,4.93
2018-06-13T08:48:52.604Z,4.63
2018-06-13T08:53:55.171Z,4.87
2018-06-13T08:58:58.463Z,3.83
2018-06-13T09:04:01.009Z,4.37
2018-06-13T09:09:03.609Z,6.37
2018-06-13T09:14:06.903Z,3.60
2018-06-13T09:19:09.449Z,5.00
2018-06-13T09:24:12.001Z,5.63
2018-06-13T09:29:14.551Z,5.70
2018-06-13T09:34:17.091Z,3.40
2018-06-13T09:39:19.625Z,4.17
2018-06-13T09:44:22.158Z,7.10
2018-06-13T09:49:24.726Z,7.13
2018-06-13T09:54:27.392Z,3.87
2018-06-13T09:59:29.922Z,4.83
2018-06-13T10:04:32.526Z,6.13
2018-06-13T10:09:35.015Z,3.80
2018-06-13T10:14:37.578Z,4.27
2018-06-13T10:19:40.128Z,3.63
2018-06-13T10:24:42.688Z,4.30
2018-06-13T10:29:45.237Z,3.23
2018-06-13T10:34:47.779Z,4.00
2018-06-13T10:39:50.352Z,7.07
2018-06-13T10:44:52.917Z,3.73
2018-06-13T10:49:55.468Z,5.57
2018-06-13T10:54:58.031Z,3.47
2018-06-13T11:00:00.557Z,3.70
2018-06-13T11:05:03.344Z,3.23
2018-06-13T11:10:05.907Z,5.40
2018-06-13T11:15:08.426Z,4.23
2018-06-13T11:20:10.970Z,5.93
2018-06-13T11:25:13.518Z,3.60
2018-06-13T11:30:16.045Z,3.63
2018-06-13T11:35:18.578Z,5.60
2018-06-13T11:40:21.116Z,4.80
2018-06-13T11:45:23.653Z,4.93
2018-06-13T11:50:26.205Z,7.10
2018-06-13T11:55:28.765Z,4.60
2018-06-13T12:00:31.319Z,5.27
2018-06-13T12:05:33.861Z,4.90
2018-06-13T12:10:36.407Z,4.60
2018-06-13T12:15:38.964Z,7.20
2018-06-13T12:20:41.569Z,5.07
2018-06-13T12:25:44.113Z,4.83
2018-06-13T12:30:46.645Z,4.53
2018-06-13T12:35:49.187Z,4.67
2018-06-13T12:40:51.733Z,5.10
2018-06-13T12:45:54.281Z,4.10
2018-06-13T12:50:57.641Z,4.13
2018-06-13T12:56:00.152Z,4.60
2018-06-13T13:01:02.686Z,6.33
2018-06-13T13:06:05.504Z,5.37
2018-06-13T13:11:08.101Z,6.70
2018-06-13T13:16:10.591Z,5.53
2018-06-13T13:21:13.154Z,5.40
2018-06-13T13:26:15.713Z,3.60
2018-06-13T13:31:18.251Z,5.10
2018-06-13T13:36:20.801Z,8.50
2018-06-13T13:41:23.330Z,5.93
2018-06-13T13:46:25.869Z,6.07
2018-06-13T13:51:28.405Z,5.90
2018-06-13T13:56:30.955Z,5.60
2018-06-13T14:01:33.506Z,5.90
2018-06-13T14:06:36.052Z,6.80
2018-06-13T14:11:38.591Z,6.33
2018-06-13T14:16:41.134Z,5.53
2018-06-13T14:21:43.788Z,8.37
2018-06-13T14:26:46.345Z,5.33
2018-06-13T14:31:48.861Z,6.10
2018-06-13T14:36:51.405Z,4.90
2018-06-13T14:41:53.955Z,13.43
2018-06-13T14:46:56.500Z,4.83
2018-06-13T14:51:59.840Z,6.47
2018-06-13T14:57:02.404Z,9.40
2018-06-13T15:02:05.009Z,6.77
2018-06-13T15:07:07.560Z,8.83
2018-06-13T15:12:10.140Z,7.20
2018-06-13T15:17:12.692Z,6.27
2018-06-13T15:22:15.273Z,2.80
2018-06-13T15:27:17.829Z,2.47
2018-06-13T15:32:20.385Z,6.97
2018-06-13T15:37:22.952Z,2.73
2018-06-13T15:42:27.321Z,5.40
2018-06-13T15:47:29.855Z,2.60
2018-06-13T15:52:33.179Z,3.00
2018-06-13T15:57:35.717Z,6.47
2018-06-13T16:02:38.248Z,3.70
2018-06-13T16:07:40.814Z,5.67
2018-06-13T16:12:43.354Z,8.30
2018-06-13T16:17:45.908Z,3.10
2018-06-13T16:22:48.445Z,3.37
2018-06-13T16:27:50.973Z,4.43
2018-06-13T16:32:54.316Z,2.83
2018-06-13T16:37:56.888Z,3.97
2018-06-13T16:42:59.440Z,2.50
2018-06-13T16:48:01.980Z,3.30
2018-06-13T16:53:04.579Z,3.23
2018-06-13T16:58:07.130Z,2.60
2018-06-13T17:03:09.708Z,2.90
2018-06-13T17:08:12.275Z,3.77
2018-06-13T17:13:14.840Z,2.53
2018-06-13T17:18:17.422Z,5.67
2018-06-13T17:23:19.965Z,2.13
2018-06-13T17:28:22.547Z,2.90
2018-06-13T17:33:25.127Z,3.87
2018-06-13T17:38:28.336Z,2.67
2018-06-13T17:43:30.925Z,2.07
2018-06-13T17:48:34.104Z,3.13
2018-06-13T17:53:36.670Z,2.33
2018-06-13T17:58:39.344Z,2.60
2018-06-13T18:03:41.958Z,2.17
2018-06-13T18:08:45.451Z,2.67
2018-06-13T18:13:47.958Z,3.37
2018-06-13T18:18:50.521Z,2.80
2018-06-13T18:23:53.070Z,2.23
2018-06-13T18:28:55.615Z,2.40
2018-06-13T18:33:58.177Z,2.30
2018-06-13T18:39:00.725Z,3.20
2018-06-13T18:44:03.274Z,3.40
2018-06-13T18:49:05.837Z,2.47
2018-06-13T18:54:09.200Z,2.70
2018-06-13T18:59:11.751Z,2.30
2018-06-13T19:04:14.298Z,2.40
2018-06-13T19:09:16.846Z,3.63
2018-06-13T19:14:20.165Z,4.00
2018-06-13T19:19:23.484Z,4.37
2018-06-13T19:24:26.029Z,4.87
2018-06-13T19:29:28.593Z,2.50
2018-06-13T19:34:31.126Z,3.17
2018-06-13T19:39:33.681Z,2.90
2018-06-13T19:44:36.208Z,2.70
2018-06-13T19:49:38.749Z,4.67
2018-06-13T19:55:00.075Z,2.40
2018-06-13T20:00:02.680Z,3.07
2018-06-13T20:05:10.850Z,2.37
2018-06-13T20:10:13.392Z,2.30
2018-06-13T20:15:31.698Z,7.80
2018-06-13T20:20:35.003Z,3.07
2018-06-13T20:25:37.557Z,2.70
2018-06-13T20:30:56.938Z,4.10
2018-06-13T20:35:59.497Z,2.40
2018-06-13T20:41:02.029Z,2.13
2018-06-13T20:46:04.582Z,5.60
2018-06-13T20:51:07.125Z,2.20
2018-06-13T20:56:09.652Z,3.07
2018-06-13T21:01:12.200Z,2.47
2018-06-13T21:06:14.731Z,1.90
2018-06-13T21:11:17.277Z,3.67
2018-06-13T21:16:19.838Z,2.67
2018-06-13T21:21:22.390Z,2.10
2018-06-13T21:26:25.704Z,4.10
2018-06-13T21:31:28.234Z,2.70
2018-06-13T21:36:30.775Z,4.03
2018-06-13T21:41:33.312Z,2.00
2018-06-13T21:46:35.854Z,1.70
2018-06-13T21:51:38.417Z,2.50
2018-06-13T21:56:41.746Z,2.20
2018-06-13T22:01:44.273Z,1.50
2018-06-13T22:06:46.816Z,3.43
2018-06-13T22:11:49.365Z,1.70
2018-06-13T22:16:52.662Z,1.67
2018-06-13T22:21:55.263Z,1.83
2018-06-13T22:26:57.809Z,1.67
2018-06-13T22:32:00.348Z,1.80
2018-06-13T22:37:03.009Z,1.97
2018-06-13T22:42:05.645Z,2.20
2018-06-13T22:47:08.178Z,2.27
2018-06-13T22:52:10.734Z,1.70
2018-06-13T22:57:13.274Z,2.50
2018-06-13T23:02:15.821Z,2.40
2018-06-13T23:07:18.425Z,1.60
2018-06-13T23:12:21.017Z,3.00
2018-06-13T23:17:23.555Z,2.23
2018-06-13T23:22:26.101Z,1.70
2018-06-13T23:27:28.640Z,2.27
2018-06-13T23:32:31.169Z,1.60
2018-06-13T23:37:33.739Z,1.63
2018-06-13T23:42:36.257Z,5.30
2018-06-13T23:47:38.797Z,1.60
2018-06-13T23:52:41.335Z,2.10
2018-06-13T23:57:43.885Z,1.40
